PWSweather.com
Personal Weather Stations
Station Observations
WH6KOWX
Next To Mccormick Park, St Helens, OR 97051-2144

Next To Mccormick ParkSt Helens, OR 97051-2144

Lat: 45.85439, Lon: -122.81898

Elevation: 79

Station Type: DAVIS Vantage Pro2 PLUS (6163)

http://www.wh6ko.net/wxhome.html

Latest ConditionsUpdated 9:00:34 AM PDT Wednesday, Apr 16, 2014
Currently Today's Max Today's Min Today's Average
Temperature 51.8°F11.0°C 51.8°F11.0°C 47.9°F8.8°C 48.9°F9.4°C
Dew Point 50.4°F10.2°C 50.4°F10.2°C 45.9°F7.7°C 47.4°F8.6°C
Winds Calm Calm Calm NWCalm NW - Calm Calm
Wind Gusts -- 3.0 mph4.8 kmh - -
Humidity 95% 97% 86% 94%
Pressure 30.07 in1018.3 mb 30.10 in1019.3 mb 30.07 in1018.3 mb -
Hour Temp Dew Point Humidity Winds Wind Gusts Pressure Precip Precip Rate Daily Precip Total
09:00 AM 51.8°F11.0°C 50.4°F10.2°C 95% Calm Calm -- 30.07 in1018.3 mb 0.00 in0.0 mm 0.00 in/hr0.0 mm/hr 0.03 in0.8 mm
08:40 AM 50.6°F10.3°C 49.2°F9.6°C 95% Calm Calm 2.0 mph3.2 kmh 30.07 in1018.3 mb 0.00 in0.0 mm 0.00 in/hr0.0 mm/hr 0.03 in0.8 mm
08:20 AM 49.4°F9.7°C 48.3°F9.1°C 96% Calm Calm 1.0 mph1.6 kmh 30.08 in1018.6 mb 0.00 in0.0 mm 0.00 in/hr0.0 mm/hr 0.03 in0.8 mm
08:00 AM 49.2°F9.6°C 48.1°F8.9°C 96% Calm Calm -- 30.07 in1018.3 mb 0.00 in0.0 mm 0.00 in/hr0.0 mm/hr 0.03 in0.8 mm
07:40 AM 48.9°F9.4°C 47.8°F8.8°C 96% Calm Calm -- 30.08 in1018.6 mb 0.00 in0.0 mm 0.00 in/hr0.0 mm/hr 0.03 in0.8 mm
07:20 AM 49.0°F9.4°C 47.9°F8.8°C 96% Calm Calm -- 30.08 in1018.6 mb 0.00 in0.0 mm 0.00 in/hr0.0 mm/hr 0.03 in0.8 mm
07:00 AM 48.6°F9.2°C 47.5°F8.6°C 96% Calm Calm -- 30.08 in1018.6 mb 0.00 in0.0 mm 0.00 in/hr0.0 mm/hr 0.03 in0.8 mm
06:40 AM 48.4°F9.1°C 47.6°F8.7°C 97% Calm Calm -- 30.08 in1018.6 mb 0.00 in0.0 mm 0.00 in/hr0.0 mm/hr 0.03 in0.8 mm
06:20 AM 48.6°F9.2°C 47.5°F8.6°C 96% Calm Calm -- 30.07 in1018.3 mb 0.00 in0.0 mm 0.00 in/hr0.0 mm/hr 0.03 in0.8 mm
06:00 AM 48.9°F9.4°C 47.8°F8.8°C 96% Calm Calm -- 30.07 in1018.3 mb 0.00 in0.0 mm 0.00 in/hr0.0 mm/hr 0.03 in0.8 mm
05:40 AM 48.8°F9.3°C 47.7°F8.7°C 96% Calm Calm -- 30.08 in1018.6 mb 0.01 in0.3 mm 0.00 in/hr0.0 mm/hr 0.03 in0.8 mm
05:20 AM 48.6°F9.2°C 47.5°F8.6°C 96% Calm Calm 3.0 mph4.8 kmh 30.08 in1018.6 mb 0.01 in0.3 mm 0.00 in/hr0.0 mm/hr 0.03 in0.8 mm
05:00 AM 48.5°F9.2°C 47.4°F8.6°C 96% Calm Calm -- 30.08 in1018.6 mb 0.01 in0.3 mm 0.02 in/hr0.5 mm/hr 0.03 in0.8 mm
04:40 AM 48.6°F9.2°C 47.2°F8.4°C 95% Calm Calm -- 30.08 in1018.6 mb 0.00 in0.0 mm 0.00 in/hr0.0 mm/hr 0.02 in0.5 mm
04:20 AM 48.5°F9.2°C 47.4°F8.6°C 96% Calm Calm -- 30.08 in1018.6 mb 0.00 in0.0 mm 0.00 in/hr0.0 mm/hr 0.02 in0.5 mm
04:00 AM 48.4°F9.1°C 47.3°F8.5°C 96% Calm Calm -- 30.08 in1018.6 mb 0.00 in0.0 mm 0.00 in/hr0.0 mm/hr 0.02 in0.5 mm
03:40 AM 48.5°F9.2°C 47.1°F8.4°C 95% Calm Calm -- 30.08 in1018.6 mb 0.00 in0.0 mm 0.00 in/hr0.0 mm/hr 0.02 in0.5 mm
03:20 AM 48.2°F9.0°C 47.1°F8.4°C 96% Calm Calm -- 30.08 in1018.6 mb 0.00 in0.0 mm 0.00 in/hr0.0 mm/hr 0.02 in0.5 mm
03:00 AM 48.2°F9.0°C 47.1°F8.4°C 96% Calm Calm -- 30.08 in1018.6 mb 0.00 in0.0 mm 0.00 in/hr0.0 mm/hr 0.02 in0.5 mm
02:40 AM 48.3°F9.1°C 46.9°F8.3°C 95% Calm Calm -- 30.08 in1018.6 mb 0.01 in0.3 mm 0.00 in/hr0.0 mm/hr 0.02 in0.5 mm
02:20 AM 48.1°F8.9°C 46.7°F8.2°C 95% Calm Calm -- 30.09 in1019.0 mb 0.02 in0.5 mm 0.00 in/hr0.0 mm/hr 0.02 in0.5 mm
02:00 AM 47.9°F8.8°C 46.3°F7.9°C 94% Calm Calm -- 30.09 in1019.0 mb 0.02 in0.5 mm 0.02 in/hr0.5 mm/hr 0.02 in0.5 mm
01:40 AM 48.0°F8.9°C 46.4°F8.0°C 94% Calm Calm -- 30.09 in1019.0 mb 0.01 in0.3 mm 0.00 in/hr0.0 mm/hr 0.01 in0.3 mm
01:20 AM 48.7°F9.3°C 46.2°F7.9°C 91% Calm Calm -- 30.10 in1019.3 mb 0.01 in0.3 mm 0.03 in/hr0.8 mm/hr 0.01 in0.3 mm
01:00 AM 49.4°F9.7°C 46.3°F7.9°C 89% Calm Calm -- 30.10 in1019.3 mb 0.00 in0.0 mm 0.00 in/hr0.0 mm/hr 0.00 in0.0 mm
12:40 AM 49.6°F9.8°C 46.5°F8.1°C 89% Calm Calm -- 30.09 in1019.0 mb 0.00 in0.0 mm 0.00 in/hr0.0 mm/hr 0.00 in0.0 mm
12:20 AM 49.9°F9.9°C 46.5°F8.1°C 88% Calm Calm -- 30.10 in1019.3 mb 0.00 in0.0 mm 0.00 in/hr0.0 mm/hr 0.00 in0.0 mm
12:00 AM 49.9°F9.9°C 45.9°F7.7°C 86% Calm Calm -- 30.09 in1019.0 mb 0.00 in0.0 mm 0.00 in/hr0.0 mm/hr 0.00 in0.0 mm